sensor_id;sensor_type;location;lat;lon;timestamp;temperature;humidity
23731;DHT22;12046;44.702;10.622;2022-10-31T00:01:55;15.80;99.90
23731;DHT22;12046;44.702;10.622;2022-10-31T00:04:40;15.70;99.90
23731;DHT22;12046;44.702;10.622;2022-10-31T00:07:08;15.80;99.90
23731;DHT22;12046;44.702;10.622;2022-10-31T00:09:34;15.80;99.90
23731;DHT22;12046;44.702;10.622;2022-10-31T00:12:00;15.70;99.90
23731;DHT22;12046;44.702;10.622;2022-10-31T00:14:26;15.70;99.90
23731;DHT22;12046;44.702;10.622;2022-10-31T00:16:52;15.70;99.90
23731;DHT22;12046;44.702;10.622;2022-10-31T00:19:18;15.70;99.90
23731;DHT22;12046;44.702;10.622;2022-10-31T00:21:44;15.70;99.90
23731;DHT22;12046;44.702;10.622;2022-10-31T00:24:10;15.70;99.90
23731;DHT22;12046;44.702;10.622;2022-10-31T00:26:36;15.70;99.90
23731;DHT22;12046;44.702;10.622;2022-10-31T00:29:03;15.60;99.90
23731;DHT22;12046;44.702;10.622;2022-10-31T00:31:29;15.60;99.90
23731;DHT22;12046;44.702;10.622;2022-10-31T00:33:56;15.60;99.90
23731;DHT22;12046;44.702;10.622;2022-10-31T00:36:22;15.60;99.90
23731;DHT22;12046;44.702;10.622;2022-10-31T00:38:48;15.60;99.90
23731;DHT22;12046;44.702;10.622;2022-10-31T00:41:16;15.60;99.90
23731;DHT22;12046;44.702;10.622;2022-10-31T00:43:43;15.60;99.90
23731;DHT22;12046;44.702;10.622;2022-10-31T00:46:10;15.60;99.90
23731;DHT22;12046;44.702;10.622;2022-10-31T00:48:36;15.60;99.90
23731;DHT22;12046;44.702;10.622;2022-10-31T00:51:04;15.60;99.90
23731;DHT22;12046;44.702;10.622;2022-10-31T00:53:30;15.60;99.90
23731;DHT22;12046;44.702;10.622;2022-10-31T00:55:56;15.50;99.90
23731;DHT22;12046;44.702;10.622;2022-10-31T00:58:22;15.50;99.90
23731;DHT22;12046;44.702;10.622;2022-10-31T01:00:48;15.50;99.90
23731;DHT22;12046;44.702;10.622;2022-10-31T01:03:25;15.50;99.90
23731;DHT22;12046;44.702;10.622;2022-10-31T01:08:25;15.50;99.90
23731;DHT22;12046;44.702;10.622;2022-10-31T01:13:38;15.50;99.90
23731;DHT22;12046;44.702;10.622;2022-10-31T01:16:06;15.50;99.90
23731;DHT22;12046;44.702;10.622;2022-10-31T01:18:33;15.50;99.90
23731;DHT22;12046;44.702;10.622;2022-10-31T01:23:29;15.50;99.90
23731;DHT22;12046;44.702;10.622;2022-10-31T01:29:03;15.40;99.90
23731;DHT22;12046;44.702;10.622;2022-10-31T01:31:34;15.40;99.90
23731;DHT22;12046;44.702;10.622;2022-10-31T01:34:01;15.30;99.90
23731;DHT22;12046;44.702;10.622;2022-10-31T01:36:30;15.30;99.90
23731;DHT22;12046;44.702;10.622;2022-10-31T01:38:59;15.30;99.90
23731;DHT22;12046;44.702;10.622;2022-10-31T01:41:31;15.20;99.90
23731;DHT22;12046;44.702;10.622;2022-10-31T01:44:49;15.20;99.90
23731;DHT22;12046;44.702;10.622;2022-10-31T01:47:05;15.20;99.90
23731;DHT22;12046;44.702;10.622;2022-10-31T01:52:10;15.20;99.90
23731;DHT22;12046;44.702;10.622;2022-10-31T01:54:41;15.20;99.90
23731;DHT22;12046;44.702;10.622;2022-10-31T01:57:11;15.20;99.90
23731;DHT22;12046;44.702;10.622;2022-10-31T01:59:43;15.10;99.90
23731;DHT22;12046;44.702;10.622;2022-10-31T02:02:10;15.20;99.90
23731;DHT22;12046;44.702;10.622;2022-10-31T02:04:38;15.10;99.90
23731;DHT22;12046;44.702;10.622;2022-10-31T02:07:25;15.10;99.90
23731;DHT22;12046;44.702;10.622;2022-10-31T02:09:53;15.10;99.90
23731;DHT22;12046;44.702;10.622;2022-10-31T02:12:20;15.10;99.90
23731;DHT22;12046;44.702;10.622;2022-10-31T02:14:46;15.10;99.90
23731;DHT22;12046;44.702;10.622;2022-10-31T02:17:12;15.10;99.90
23731;DHT22;12046;44.702;10.622;2022-10-31T02:20:17;15.10;99.90
23731;DHT22;12046;44.702;10.622;2022-10-31T02:23:10;15.10;99.90
23731;DHT22;12046;44.702;10.622;2022-10-31T02:29:16;15.10;99.90
23731;DHT22;12046;44.702;10.622;2022-10-31T02:32:00;15.00;99.90
23731;DHT22;12046;44.702;10.622;2022-10-31T02:34:38;15.00;99.90
23731;DHT22;12046;44.702;10.622;2022-10-31T02:40:14;15.00;99.90
23731;DHT22;12046;44.702;10.622;2022-10-31T02:43:30;14.90;99.90
23731;DHT22;12046;44.702;10.622;2022-10-31T02:45:39;14.90;99.90
23731;DHT22;12046;44.702;10.622;2022-10-31T02:48:10;14.90;99.90
23731;DHT22;12046;44.702;10.622;2022-10-31T02:50:41;14.90;99.90
23731;DHT22;12046;44.702;10.622;2022-10-31T02:53:09;14.80;99.90
23731;DHT22;12046;44.702;10.622;2022-10-31T02:58:07;14.80;99.90
23731;DHT22;12046;44.702;10.622;2022-10-31T03:03:30;14.70;99.90
23731;DHT22;12046;44.702;10.622;2022-10-31T03:08:49;14.70;99.90
23731;DHT22;12046;44.702;10.622;2022-10-31T03:11:17;14.70;99.90
23731;DHT22;12046;44.702;10.622;2022-10-31T03:13:51;14.70;99.90
23731;DHT22;12046;44.702;10.622;2022-10-31T03:19:08;14.70;99.90
23731;DHT22;12046;44.702;10.622;2022-10-31T03:21:47;14.70;99.90
23731;DHT22;12046;44.702;10.622;2022-10-31T03:24:15;14.60;99.90
23731;DHT22;12046;44.702;10.622;2022-10-31T03:26:52;14.60;99.90
23731;DHT22;12046;44.702;10.622;2022-10-31T03:29:22;14.50;99.90
23731;DHT22;12046;44.702;10.622;2022-10-31T03:32:00;14.60;99.90
23731;DHT22;12046;44.702;10.622;2022-10-31T03:34:29;14.60;99.90
23731;DHT22;12046;44.702;10.622;2022-10-31T03:36:58;14.60;99.90
23731;DHT22;12046;44.702;10.622;2022-10-31T03:39:26;14.60;99.90
23731;DHT22;12046;44.702;10.622;2022-10-31T03:42:08;14.60;99.90
23731;DHT22;12046;44.702;10.622;2022-10-31T03:44:36;14.50;99.90
23731;DHT22;12046;44.702;10.622;2022-10-31T03:47:04;14.50;99.90
23731;DHT22;12046;44.702;10.622;2022-10-31T03:49:31;14.60;99.90
23731;DHT22;12046;44.702;10.622;2022-10-31T03:52:27;14.50;99.90
23731;DHT22;12046;44.702;10.622;2022-10-31T03:57:39;14.50;99.90
23731;DHT22;12046;44.702;10.622;2022-10-31T04:00:10;14.50;99.90
23731;DHT22;12046;44.702;10.622;2022-10-31T04:02:41;14.40;99.90
23731;DHT22;12046;44.702;10.622;2022-10-31T04:05:10;14.40;99.90
23731;DHT22;12046;44.702;10.622;2022-10-31T04:07:44;14.40;99.90
23731;DHT22;12046;44.702;10.622;2022-10-31T04:10:13;14.40;99.90
23731;DHT22;12046;44.702;10.622;2022-10-31T04:12:41;14.40;99.90
23731;DHT22;12046;44.702;10.622;2022-10-31T04:15:09;14.40;99.90
23731;DHT22;12046;44.702;10.622;2022-10-31T04:17:39;14.40;99.90
23731;DHT22;12046;44.702;10.622;2022-10-31T04:20:06;14.40;99.90
23731;DHT22;12046;44.702;10.622;2022-10-31T04:22:32;14.40;99.90
23731;DHT22;12046;44.702;10.622;2022-10-31T04:24:58;14.30;99.90
23731;DHT22;12046;44.702;10.622;2022-10-31T04:27:24;14.40;99.90
23731;DHT22;12046;44.702;10.622;2022-10-31T04:29:50;14.40;99.90
23731;DHT22;12046;44.702;10.622;2022-10-31T04:32:16;14.40;99.90
23731;DHT22;12046;44.702;10.622;2022-10-31T04:34:42;14.40;99.90
23731;DHT22;12046;44.702;10.622;2022-10-31T04:37:08;14.40;99.90
23731;DHT22;12046;44.702;10.622;2022-10-31T04:39:34;14.40;99.90
23731;DHT22;12046;44.702;10.622;2022-10-31T04:42:00;14.30;99.90
23731;DHT22;12046;44.702;10.622;2022-10-31T04:44:26;14.30;99.90
23731;DHT22;12046;44.702;10.622;2022-10-31T04:46:52;14.30;99.90
23731;DHT22;12046;44.702;10.622;2022-10-31T04:49:17;14.30;99.90
23731;DHT22;12046;44.702;10.622;2022-10-31T04:51:43;14.30;99.90
23731;DHT22;12046;44.702;10.622;2022-10-31T04:54:09;14.30;99.90
23731;DHT22;12046;44.702;10.622;2022-10-31T04:56:35;14.30;99.90
23731;DHT22;12046;44.702;10.622;2022-10-31T04:59:01;14.30;99.90
23731;DHT22;12046;44.702;10.622;2022-10-31T05:01:27;14.30;99.90
23731;DHT22;12046;44.702;10.622;2022-10-31T05:03:53;14.20;99.90
23731;DHT22;12046;44.702;10.622;2022-10-31T05:06:19;14.30;99.90
23731;DHT22;12046;44.702;10.622;2022-10-31T05:08:45;14.20;99.90
23731;DHT22;12046;44.702;10.622;2022-10-31T05:11:11;14.30;99.90
23731;DHT22;12046;44.702;10.622;2022-10-31T05:13:37;14.30;99.90
23731;DHT22;12046;44.702;10.622;2022-10-31T05:16:03;14.20;99.90
23731;DHT22;12046;44.702;10.622;2022-10-31T05:18:29;14.20;99.90
23731;DHT22;12046;44.702;10.622;2022-10-31T05:20:55;14.20;99.90
23731;DHT22;12046;44.702;10.622;2022-10-31T05:23:21;14.20;99.90
23731;DHT22;12046;44.702;10.622;2022-10-31T05:25:47;14.20;99.90
23731;DHT22;12046;44.702;10.622;2022-10-31T05:28:13;14.10;99.90
23731;DHT22;12046;44.702;10.622;2022-10-31T05:30:39;14.10;99.90
23731;DHT22;12046;44.702;10.622;2022-10-31T05:33:05;14.10;99.90
23731;DHT22;12046;44.702;10.622;2022-10-31T05:35:32;14.10;99.90
23731;DHT22;12046;44.702;10.622;2022-10-31T05:37:58;14.10;99.90
23731;DHT22;12046;44.702;10.622;2022-10-31T05:40:25;14.10;99.90
23731;DHT22;12046;44.702;10.622;2022-10-31T05:42:53;14.10;99.90
23731;DHT22;12046;44.702;10.622;2022-10-31T05:45:20;14.00;99.90
23731;DHT22;12046;44.702;10.622;2022-10-31T05:50:16;14.00;99.90
23731;DHT22;12046;44.702;10.622;2022-10-31T05:52:43;14.00;99.90
23731;DHT22;12046;44.702;10.622;2022-10-31T05:55:09;14.00;99.90
23731;DHT22;12046;44.702;10.622;2022-10-31T05:57:35;14.00;99.90
23731;DHT22;12046;44.702;10.622;2022-10-31T06:00:01;14.00;99.90
23731;DHT22;12046;44.702;10.622;2022-10-31T06:02:27;14.00;99.90
23731;DHT22;12046;44.702;10.622;2022-10-31T06:04:57;14.00;99.90
23731;DHT22;12046;44.702;10.622;2022-10-31T06:07:23;14.00;99.90
23731;DHT22;12046;44.702;10.622;2022-10-31T06:09:49;14.00;99.90
23731;DHT22;12046;44.702;10.622;2022-10-31T06:12:14;14.00;99.90
23731;DHT22;12046;44.702;10.622;2022-10-31T06:14:40;14.10;99.90
23731;DHT22;12046;44.702;10.622;2022-10-31T06:17:06;14.00;99.90
23731;DHT22;12046;44.702;10.622;2022-10-31T06:19:32;14.00;99.90
23731;DHT22;12046;44.702;10.622;2022-10-31T06:21:58;14.00;99.90
23731;DHT22;12046;44.702;10.622;2022-10-31T06:24:24;14.10;99.90
23731;DHT22;12046;44.702;10.622;2022-10-31T06:26:50;14.10;99.90
23731;DHT22;12046;44.702;10.622;2022-10-31T06:29:16;14.20;99.90
23731;DHT22;12046;44.702;10.622;2022-10-31T06:31:42;14.20;99.90
23731;DHT22;12046;44.702;10.622;2022-10-31T06:34:08;14.30;99.90
23731;DHT22;12046;44.702;10.622;2022-10-31T06:36:34;14.40;99.90
23731;DHT22;12046;44.702;10.622;2022-10-31T06:39:00;14.60;99.90
23731;DHT22;12046;44.702;10.622;2022-10-31T06:41:26;14.80;99.90
23731;DHT22;12046;44.702;10.622;2022-10-31T06:43:52;15.10;99.90
23731;DHT22;12046;44.702;10.622;2022-10-31T06:46:18;15.30;99.90
23731;DHT22;12046;44.702;10.622;2022-10-31T06:48:44;15.50;99.90
23731;DHT22;12046;44.702;10.622;2022-10-31T06:51:10;15.60;99.90
23731;DHT22;12046;44.702;10.622;2022-10-31T06:53:36;15.70;99.90
23731;DHT22;12046;44.702;10.622;2022-10-31T06:56:02;15.80;99.90
23731;DHT22;12046;44.702;10.622;2022-10-31T06:58:28;15.90;99.90
23731;DHT22;12046;44.702;10.622;2022-10-31T07:00:54;16.00;99.90
23731;DHT22;12046;44.702;10.622;2022-10-31T07:03:19;16.10;99.90
23731;DHT22;12046;44.702;10.622;2022-10-31T07:05:46;16.30;99.90
23731;DHT22;12046;44.702;10.622;2022-10-31T07:08:13;16.40;99.90
23731;DHT22;12046;44.702;10.622;2022-10-31T07:10:41;16.60;99.90
23731;DHT22;12046;44.702;10.622;2022-10-31T07:13:12;16.80;99.90
23731;DHT22;12046;44.702;10.622;2022-10-31T07:15:40;17.00;99.90
23731;DHT22;12046;44.702;10.622;2022-10-31T07:18:07;17.20;99.90
23731;DHT22;12046;44.702;10.622;2022-10-31T07:20:34;17.40;99.90
23731;DHT22;12046;44.702;10.622;2022-10-31T07:23:00;17.50;99.90
23731;DHT22;12046;44.702;10.622;2022-10-31T07:25:26;17.60;99.90
23731;DHT22;12046;44.702;10.622;2022-10-31T07:27:53;17.80;99.90
23731;DHT22;12046;44.702;10.622;2022-10-31T07:30:19;17.90;99.90
23731;DHT22;12046;44.702;10.622;2022-10-31T07:32:47;18.10;99.90
23731;DHT22;12046;44.702;10.622;2022-10-31T07:35:15;18.30;99.90
23731;DHT22;12046;44.702;10.622;2022-10-31T07:37:42;18.50;99.90
23731;DHT22;12046;44.702;10.622;2022-10-31T07:40:08;18.70;99.90
23731;DHT22;12046;44.702;10.622;2022-10-31T07:42:39;18.90;99.90
23731;DHT22;12046;44.702;10.622;2022-10-31T07:45:06;19.20;99.90
23731;DHT22;12046;44.702;10.622;2022-10-31T07:47:43;19.30;99.90
23731;DHT22;12046;44.702;10.622;2022-10-31T07:50:11;19.40;99.90
23731;DHT22;12046;44.702;10.622;2022-10-31T07:52:37;19.40;99.90
23731;DHT22;12046;44.702;10.622;2022-10-31T07:55:04;19.60;99.90
23731;DHT22;12046;44.702;10.622;2022-10-31T07:57:37;19.80;99.90
23731;DHT22;12046;44.702;10.622;2022-10-31T08:00:10;20.10;99.90
23731;DHT22;12046;44.702;10.622;2022-10-31T08:02:35;20.40;99.90
23731;DHT22;12046;44.702;10.622;2022-10-31T08:05:01;20.80;99.90
23731;DHT22;12046;44.702;10.622;2022-10-31T08:07:28;21.00;99.90
23731;DHT22;12046;44.702;10.622;2022-10-31T08:09:55;21.30;99.90
23731;DHT22;12046;44.702;10.622;2022-10-31T08:12:21;21.60;99.90
23731;DHT22;12046;44.702;10.622;2022-10-31T08:14:47;21.80;99.70
23731;DHT22;12046;44.702;10.622;2022-10-31T08:17:13;22.10;99.20
23731;DHT22;12046;44.702;10.622;2022-10-31T08:19:39;22.30;98.40
23731;DHT22;12046;44.702;10.622;2022-10-31T08:22:05;22.60;98.10
23731;DHT22;12046;44.702;10.622;2022-10-31T08:24:31;22.90;97.50
23731;DHT22;12046;44.702;10.622;2022-10-31T08:26:57;23.20;97.10
23731;DHT22;12046;44.702;10.622;2022-10-31T08:29:23;23.50;96.70
23731;DHT22;12046;44.702;10.622;2022-10-31T08:31:49;23.80;96.30
23731;DHT22;12046;44.702;10.622;2022-10-31T08:34:15;24.20;95.80
23731;DHT22;12046;44.702;10.622;2022-10-31T08:36:41;24.50;95.00
23731;DHT22;12046;44.702;10.622;2022-10-31T08:39:10;24.90;94.40
23731;DHT22;12046;44.702;10.622;2022-10-31T08:41:36;25.00;94.20
23731;DHT22;12046;44.702;10.622;2022-10-31T08:44:02;25.10;94.00
23731;DHT22;12046;44.702;10.622;2022-10-31T08:46:28;25.40;94.00
23731;DHT22;12046;44.702;10.622;2022-10-31T08:48:54;25.70;93.10
23731;DHT22;12046;44.702;10.622;2022-10-31T08:51:20;26.00;92.90
23731;DHT22;12046;44.702;10.622;2022-10-31T08:53:46;26.30;92.10
23731;DHT22;12046;44.702;10.622;2022-10-31T08:56:12;26.50;91.90
23731;DHT22;12046;44.702;10.622;2022-10-31T08:58:38;26.70;91.60
23731;DHT22;12046;44.702;10.622;2022-10-31T09:01:03;27.10;91.20
23731;DHT22;12046;44.702;10.622;2022-10-31T09:03:30;27.80;90.70
23731;DHT22;12046;44.702;10.622;2022-10-31T09:05:59;28.80;89.20
23731;DHT22;12046;44.702;10.622;2022-10-31T09:08:28;29.80;86.90
23731;DHT22;12046;44.702;10.622;2022-10-31T09:10:58;30.70;84.40
23731;DHT22;12046;44.702;10.622;2022-10-31T09:13:25;31.30;82.00
23731;DHT22;12046;44.702;10.622;2022-10-31T09:15:55;31.50;81.00
23731;DHT22;12046;44.702;10.622;2022-10-31T09:18:25;31.90;80.00
23731;DHT22;12046;44.702;10.622;2022-10-31T09:20:57;32.70;78.20
23731;DHT22;12046;44.702;10.622;2022-10-31T09:36:57;35.60;69.50
23731;DHT22;12046;44.702;10.622;2022-10-31T09:39:43;35.70;68.60
23731;DHT22;12046;44.702;10.622;2022-10-31T09:50:19;34.70;68.70
23731;DHT22;12046;44.702;10.622;2022-10-31T09:53:05;34.60;68.30
23731;DHT22;12046;44.702;10.622;2022-10-31T09:55:43;34.30;68.60
23731;DHT22;12046;44.702;10.622;2022-10-31T09:58:23;33.90;68.90
23731;DHT22;12046;44.702;10.622;2022-10-31T10:00:51;33.70;69.60
23731;DHT22;12046;44.702;10.622;2022-10-31T10:06:22;33.50;69.90
23731;DHT22;12046;44.702;10.622;2022-10-31T10:08:49;34.00;68.90
23731;DHT22;12046;44.702;10.622;2022-10-31T10:28:04;37.30;64.00
23731;DHT22;12046;44.702;10.622;2022-10-31T10:33:16;38.40;61.20
23731;DHT22;12046;44.702;10.622;2022-10-31T10:35:51;37.90;61.50
23731;DHT22;12046;44.702;10.622;2022-10-31T10:38:51;37.90;61.10
23731;DHT22;12046;44.702;10.622;2022-10-31T10:41:20;38.10;61.00
23731;DHT22;12046;44.702;10.622;2022-10-31T10:43:49;38.70;60.40
23731;DHT22;12046;44.702;10.622;2022-10-31T10:57:44;39.30;59.90
23731;DHT22;12046;44.702;10.622;2022-10-31T11:00:27;39.80;57.50
23731;DHT22;12046;44.702;10.622;2022-10-31T11:02:55;39.30;58.60
23731;DHT22;12046;44.702;10.622;2022-10-31T11:05:33;39.90;57.70
23731;DHT22;12046;44.702;10.622;2022-10-31T11:08:01;40.20;57.00
23731;DHT22;12046;44.702;10.622;2022-10-31T11:10:28;40.20;56.70
23731;DHT22;12046;44.702;10.622;2022-10-31T11:13:20;40.40;56.10
23731;DHT22;12046;44.702;10.622;2022-10-31T11:18:29;40.20;56.40
23731;DHT22;12046;44.702;10.622;2022-10-31T11:20:57;40.30;56.30
23731;DHT22;12046;44.702;10.622;2022-10-31T11:23:27;40.70;56.10
23731;DHT22;12046;44.702;10.622;2022-10-31T11:26:03;41.30;55.60
23731;DHT22;12046;44.702;10.622;2022-10-31T11:28:31;41.70;54.80
23731;DHT22;12046;44.702;10.622;2022-10-31T11:31:12;42.20;54.10
23731;DHT22;12046;44.702;10.622;2022-10-31T11:36:23;42.10;53.60
23731;DHT22;12046;44.702;10.622;2022-10-31T11:38:50;41.80;54.00
23731;DHT22;12046;44.702;10.622;2022-10-31T11:41:19;41.70;54.10
23731;DHT22;12046;44.702;10.622;2022-10-31T11:43:57;41.70;53.80
23731;DHT22;12046;44.702;10.622;2022-10-31T11:46:34;41.90;53.70
23731;DHT22;12046;44.702;10.622;2022-10-31T11:49:01;42.00;53.30
23731;DHT22;12046;44.702;10.622;2022-10-31T11:51:33;41.50;53.60
23731;DHT22;12046;44.702;10.622;2022-10-31T11:54:02;41.00;53.60
23731;DHT22;12046;44.702;10.622;2022-10-31T11:56:41;40.90;53.80
23731;DHT22;12046;44.702;10.622;2022-10-31T11:59:27;41.00;54.00
23731;DHT22;12046;44.702;10.622;2022-10-31T12:01:56;41.30;53.60
23731;DHT22;12046;44.702;10.622;2022-10-31T12:04:57;41.10;53.40
23731;DHT22;12046;44.702;10.622;2022-10-31T12:07:24;40.40;53.70
23731;DHT22;12046;44.702;10.622;2022-10-31T12:09:50;39.80;54.10
23731;DHT22;12046;44.702;10.622;2022-10-31T12:12:29;39.30;54.60
23731;DHT22;12046;44.702;10.622;2022-10-31T12:15:22;39.30;55.10
23731;DHT22;12046;44.702;10.622;2022-10-31T12:31:54;40.80;53.60
23731;DHT22;12046;44.702;10.622;2022-10-31T12:55:37;36.90;57.00
23731;DHT22;12046;44.702;10.622;2022-10-31T13:00:51;35.20;58.80
23731;DHT22;12046;44.702;10.622;2022-10-31T13:03:31;34.50;59.60
23731;DHT22;12046;44.702;10.622;2022-10-31T13:06:05;34.10;60.20
23731;DHT22;12046;44.702;10.622;2022-10-31T13:08:46;33.80;60.50
23731;DHT22;12046;44.702;10.622;2022-10-31T13:11:21;33.50;61.10
23731;DHT22;12046;44.702;10.622;2022-10-31T13:16:33;32.80;61.80
23731;DHT22;12046;44.702;10.622;2022-10-31T13:19:16;32.60;62.40
23731;DHT22;12046;44.702;10.622;2022-10-31T13:22:08;32.40;62.20
23731;DHT22;12046;44.702;10.622;2022-10-31T13:28:04;32.70;62.10
23731;DHT22;12046;44.702;10.622;2022-10-31T13:30:38;32.50;62.50
23731;DHT22;12046;44.702;10.622;2022-10-31T13:33:11;32.30;62.50
23731;DHT22;12046;44.702;10.622;2022-10-31T13:35:48;32.20;62.80
23731;DHT22;12046;44.702;10.622;2022-10-31T13:38:51;31.90;63.40
23731;DHT22;12046;44.702;10.622;2022-10-31T13:41:47;31.70;63.90
23731;DHT22;12046;44.702;10.622;2022-10-31T13:44:27;31.80;63.90
23731;DHT22;12046;44.702;10.622;2022-10-31T13:46:55;31.70;64.00
23731;DHT22;12046;44.702;10.622;2022-10-31T13:54:33;31.30;64.80
23731;DHT22;12046;44.702;10.622;2022-10-31T13:56:59;31.10;64.80
23731;DHT22;12046;44.702;10.622;2022-10-31T13:59:27;31.10;65.00
23731;DHT22;12046;44.702;10.622;2022-10-31T14:01:59;31.00;64.90
23731;DHT22;12046;44.702;10.622;2022-10-31T14:04:59;31.00;65.20
23731;DHT22;12046;44.702;10.622;2022-10-31T14:07:24;31.50;64.80
23731;DHT22;12046;44.702;10.622;2022-10-31T14:12:46;34.30;61.00
23731;DHT22;12046;44.702;10.622;2022-10-31T14:18:03;37.10;57.80
23731;DHT22;12046;44.702;10.622;2022-10-31T14:20:46;37.60;56.90
23731;DHT22;12046;44.702;10.622;2022-10-31T14:23:41;37.60;56.70
23731;DHT22;12046;44.702;10.622;2022-10-31T14:26:19;37.50;56.80
23731;DHT22;12046;44.702;10.622;2022-10-31T14:28:47;37.40;56.80
23731;DHT22;12046;44.702;10.622;2022-10-31T14:40:30;36.00;58.40
23731;DHT22;12046;44.702;10.622;2022-10-31T14:48:47;34.90;58.90
23731;DHT22;12046;44.702;10.622;2022-10-31T14:50:56;34.40;59.10
23731;DHT22;12046;44.702;10.622;2022-10-31T14:53:26;33.80;59.60
23731;DHT22;12046;44.702;10.622;2022-10-31T14:55:57;33.60;60.00
23731;DHT22;12046;44.702;10.622;2022-10-31T15:01:05;33.80;59.90
23731;DHT22;12046;44.702;10.622;2022-10-31T15:03:38;33.60;59.90
23731;DHT22;12046;44.702;10.622;2022-10-31T15:06:16;33.10;61.20
23731;DHT22;12046;44.702;10.622;2022-10-31T15:08:51;32.90;62.20
23731;DHT22;12046;44.702;10.622;2022-10-31T15:11:23;32.70;62.40
23731;DHT22;12046;44.702;10.622;2022-10-31T15:16:24;31.70;63.00
23731;DHT22;12046;44.702;10.622;2022-10-31T15:19:04;31.00;64.30
23731;DHT22;12046;44.702;10.622;2022-10-31T15:21:31;30.40;65.40
23731;DHT22;12046;44.702;10.622;2022-10-31T15:24:00;30.10;66.30
23731;DHT22;12046;44.702;10.622;2022-10-31T15:26:38;30.10;66.40
23731;DHT22;12046;44.702;10.622;2022-10-31T15:29:13;30.20;66.30
23731;DHT22;12046;44.702;10.622;2022-10-31T15:31:56;30.50;66.60
23731;DHT22;12046;44.702;10.622;2022-10-31T15:36:54;30.50;67.10
23731;DHT22;12046;44.702;10.622;2022-10-31T15:39:23;29.90;68.20
23731;DHT22;12046;44.702;10.622;2022-10-31T15:41:59;29.20;69.20
23731;DHT22;12046;44.702;10.622;2022-10-31T15:44:31;28.50;70.10
23731;DHT22;12046;44.702;10.622;2022-10-31T15:47:02;27.90;71.70
23731;DHT22;12046;44.702;10.622;2022-10-31T15:49:35;27.30;72.70
23731;DHT22;12046;44.702;10.622;2022-10-31T15:52:09;26.80;73.50
23731;DHT22;12046;44.702;10.622;2022-10-31T15:54:46;26.40;74.40
23731;DHT22;12046;44.702;10.622;2022-10-31T15:57:13;26.10;75.40
23731;DHT22;12046;44.702;10.622;2022-10-31T15:59:42;25.80;76.60
23731;DHT22;12046;44.702;10.622;2022-10-31T16:02:12;25.50;77.60
23731;DHT22;12046;44.702;10.622;2022-10-31T16:07:20;25.00;80.30
23731;DHT22;12046;44.702;10.622;2022-10-31T16:10:01;24.70;81.40
23731;DHT22;12046;44.702;10.622;2022-10-31T16:12:36;24.40;82.40
23731;DHT22;12046;44.702;10.622;2022-10-31T16:15:04;24.10;83.30
23731;DHT22;12046;44.702;10.622;2022-10-31T16:17:31;24.00;84.30
23731;DHT22;12046;44.702;10.622;2022-10-31T16:20:02;23.80;85.20
23731;DHT22;12046;44.702;10.622;2022-10-31T16:22:37;23.70;85.80
23731;DHT22;12046;44.702;10.622;2022-10-31T16:25:16;23.50;86.20
23731;DHT22;12046;44.702;10.622;2022-10-31T16:27:53;23.40;86.80
23731;DHT22;12046;44.702;10.622;2022-10-31T16:30:40;23.30;87.50
23731;DHT22;12046;44.702;10.622;2022-10-31T16:33:45;23.20;88.70
23731;DHT22;12046;44.702;10.622;2022-10-31T16:36:33;23.10;89.40
23731;DHT22;12046;44.702;10.622;2022-10-31T16:39:04;23.00;90.00
23731;DHT22;12046;44.702;10.622;2022-10-31T16:41:32;22.90;90.20
23731;DHT22;12046;44.702;10.622;2022-10-31T16:44:00;22.90;90.50
23731;DHT22;12046;44.702;10.622;2022-10-31T16:46:29;22.80;90.70
23731;DHT22;12046;44.702;10.622;2022-10-31T16:48:55;22.70;91.00
23731;DHT22;12046;44.702;10.622;2022-10-31T16:51:21;22.70;91.30
23731;DHT22;12046;44.702;10.622;2022-10-31T16:53:47;22.60;91.60
23731;DHT22;12046;44.702;10.622;2022-10-31T16:56:21;22.50;91.80
23731;DHT22;12046;44.702;10.622;2022-10-31T16:58:49;22.40;92.00
23731;DHT22;12046;44.702;10.622;2022-10-31T17:01:15;22.40;92.20
23731;DHT22;12046;44.702;10.622;2022-10-31T17:03:41;22.30;92.30
23731;DHT22;12046;44.702;10.622;2022-10-31T17:06:11;22.20;92.50
23731;DHT22;12046;44.702;10.622;2022-10-31T17:08:38;22.00;92.80
23731;DHT22;12046;44.702;10.622;2022-10-31T17:11:04;21.90;93.20
23731;DHT22;12046;44.702;10.622;2022-10-31T17:13:32;21.80;93.60
23731;DHT22;12046;44.702;10.622;2022-10-31T17:16:01;21.70;94.10
23731;DHT22;12046;44.702;10.622;2022-10-31T17:18:28;21.60;94.40
23731;DHT22;12046;44.702;10.622;2022-10-31T17:20:59;21.50;94.60
23731;DHT22;12046;44.702;10.622;2022-10-31T17:23:26;21.40;95.00
23731;DHT22;12046;44.702;10.622;2022-10-31T17:25:53;21.30;95.40
23731;DHT22;12046;44.702;10.622;2022-10-31T17:28:20;21.30;95.80
23731;DHT22;12046;44.702;10.622;2022-10-31T17:30:46;21.20;96.20
23731;DHT22;12046;44.702;10.622;2022-10-31T17:33:14;21.20;96.40
23731;DHT22;12046;44.702;10.622;2022-10-31T17:35:41;21.20;96.50
23731;DHT22;12046;44.702;10.622;2022-10-31T17:38:07;21.20;96.40
23731;DHT22;12046;44.702;10.622;2022-10-31T17:40:36;21.10;96.50
23731;DHT22;12046;44.702;10.622;2022-10-31T17:43:03;21.10;97.00
23731;DHT22;12046;44.702;10.622;2022-10-31T17:45:29;21.00;97.10
23731;DHT22;12046;44.702;10.622;2022-10-31T17:47:55;21.00;97.30
23731;DHT22;12046;44.702;10.622;2022-10-31T17:50:23;20.90;97.70
23731;DHT22;12046;44.702;10.622;2022-10-31T17:52:49;20.80;98.00
23731;DHT22;12046;44.702;10.622;2022-10-31T17:55:16;20.80;98.00
23731;DHT22;12046;44.702;10.622;2022-10-31T17:57:42;20.80;98.10
23731;DHT22;12046;44.702;10.622;2022-10-31T18:00:14;20.80;98.30
23731;DHT22;12046;44.702;10.622;2022-10-31T18:02:41;20.70;98.40
23731;DHT22;12046;44.702;10.622;2022-10-31T18:05:07;20.60;98.60
23731;DHT22;12046;44.702;10.622;2022-10-31T18:07:34;20.50;98.90
23731;DHT22;12046;44.702;10.622;2022-10-31T18:10:00;20.40;99.20
23731;DHT22;12046;44.702;10.622;2022-10-31T18:12:26;20.20;99.30
23731;DHT22;12046;44.702;10.622;2022-10-31T18:14:53;20.10;99.60
23731;DHT22;12046;44.702;10.622;2022-10-31T18:17:20;20.00;99.90
23731;DHT22;12046;44.702;10.622;2022-10-31T18:19:46;20.00;99.90
23731;DHT22;12046;44.702;10.622;2022-10-31T18:22:13;20.00;99.90
23731;DHT22;12046;44.702;10.622;2022-10-31T18:24:39;20.00;99.90
23731;DHT22;12046;44.702;10.622;2022-10-31T18:27:05;20.00;99.90
23731;DHT22;12046;44.702;10.622;2022-10-31T18:29:31;20.00;99.90
23731;DHT22;12046;44.702;10.622;2022-10-31T18:31:57;19.90;99.90